Terminal Aerodrome Forecast
Issued by NWS Caribou, ME

Home | Current Version | Previous Version | Text Only | Print | Product List | Glossary On
Versions: 1 2 3 4 5 6 7 8 9 10 11 12 13 14 15 16 17 18 19 20
361
FTUS41 KCAR 281122
TAFBGR
TAF
KBGR 281122Z 2812/2912 VRB03KT P6SM BKN250
     FM281700 31007KT P6SM BKN250
     FM282000 02006KT P6SM BKN070
     FM290400 07004KT 5SM BR BKN100
     FM290700 08005KT 2SM BR BKN010=

USA.gov is the U.S. government's official web portal to all federal, state and local government web resources and services.